Impacts TAF Board
For situational awareness. Not to be used for flight planning purposes.
IDs:

KFLL - Ft Lauderdale-Hollyw, FL, US

Issued at 0520 UTC 23 Oct 2018
Updated at 0746 UTC 23 Oct 2018
Potential Impact None Slight Moderate High
Time0653Z 23/08Z 23/09Z 23/10Z 23/11Z 23/12Z 23/13Z 23/14Z 23/15Z 23/16Z 23/17Z 23/18Z 23/19Z 23/20Z>>
Type OBS PRVL PRVL PRVL PRVL PRVL PRVL PRVL PRVL PRVL PRVL PRVL PRVL PRVL
VIS 10 >6 >6 >6 >6 >6 >6 >6 >6 >6 >6 >6 >6 >6
CIG 32 -- -- -- -- -- -- -- -- 35 35 35 35 35
Cover BKN SCT SCT SCT SCT SCT SCT SCT SCT BKN BKN BKN BKN BKN
FltCat VFR VFR VFR VFR VFR VFR VFR VFR VFR VFR VFR VFR VFR VFR
WX -- -- -- -- -- -- -- -- -- -- -- -- -- --
WDir 80 70 70 70 70 70 70 70 70 100 100 100 100 100
WSpd 11 8 8 8 8 8 8 8 8 10 10 10 10 10
WGst -- -- -- -- -- -- -- -- -- -- -- -- -- --
Raw TAF
KFLL 230520Z 2306/2412 07008KT P6SM SCT040
  FM231600 10010KT P6SM SCT025 BKN035
  FM240200 VRB04KT P6SM SCT035 BKN250


Raw METAR
KFLL 230653Z 08011KT 10SM BKN032 BKN070 26/21 A3003 RMK AO2 SLP170 T02560211
KFLL 230553Z 07009KT 10SM FEW030 FEW070 25/21 A3005 RMK AO2 SLP177 T02500211 10256 20250 58011
KFLL 230453Z 08011KT 10SM SCT032 26/21 A3007 RMK AO2 SLP180 T02560211 402890239

METAR Board
Radar Display
Forecast Discussion
For situational awareness. Not to be used for flight planning purposes.